sensor_id;sensor_type;location;lat;lon;timestamp;pressure;altitude;pressure_sealevel;temperature;humidity
6349;BME280;3207;42.648;23.406;2022-09-01T00:01:41;99925.88;;;23.23;61.72
6349;BME280;3207;42.648;23.406;2022-09-01T00:04:10;99924.22;;;23.22;61.67
6349;BME280;3207;42.648;23.406;2022-09-01T00:06:38;99926.06;;;23.22;61.52
6349;BME280;3207;42.648;23.406;2022-09-01T00:09:07;99931.19;;;23.23;61.63
6349;BME280;3207;42.648;23.406;2022-09-01T00:11:35;99929.34;;;23.24;61.45
6349;BME280;3207;42.648;23.406;2022-09-01T00:14:03;99931.63;;;23.27;61.48
6349;BME280;3207;42.648;23.406;2022-09-01T00:16:32;99938.81;;;23.26;61.21
6349;BME280;3207;42.648;23.406;2022-09-01T00:19:00;99934.47;;;23.19;61.72
6349;BME280;3207;42.648;23.406;2022-09-01T00:21:29;99948.22;;;23.22;61.72
6349;BME280;3207;42.648;23.406;2022-09-01T00:23:56;99934.25;;;23.20;61.66
6349;BME280;3207;42.648;23.406;2022-09-01T00:26:23;99944.91;;;23.20;61.64
6349;BME280;3207;42.648;23.406;2022-09-01T00:28:50;99947.81;;;23.19;61.71
6349;BME280;3207;42.648;23.406;2022-09-01T00:31:17;99940.00;;;23.17;61.82
6349;BME280;3207;42.648;23.406;2022-09-01T00:33:45;99934.66;;;23.17;61.66
6349;BME280;3207;42.648;23.406;2022-09-01T00:36:14;99932.16;;;23.09;61.57
6349;BME280;3207;42.648;23.406;2022-09-01T00:38:41;99935.00;;;23.08;61.45
6349;BME280;3207;42.648;23.406;2022-09-01T00:41:09;99929.59;;;23.01;61.36
6349;BME280;3207;42.648;23.406;2022-09-01T00:43:39;99925.06;;;22.95;61.33
6349;BME280;3207;42.648;23.406;2022-09-01T00:46:11;99923.41;;;22.94;61.54
6349;BME280;3207;42.648;23.406;2022-09-01T00:48:38;99916.03;;;22.96;61.80
6349;BME280;3207;42.648;23.406;2022-09-01T00:51:06;99911.53;;;22.96;61.93
6349;BME280;3207;42.648;23.406;2022-09-01T00:53:37;99920.34;;;22.97;61.89
6349;BME280;3207;42.648;23.406;2022-09-01T00:56:07;99921.59;;;23.01;61.56
6349;BME280;3207;42.648;23.406;2022-09-01T00:58:37;99925.09;;;23.02;61.67
6349;BME280;3207;42.648;23.406;2022-09-01T01:01:05;99917.06;;;22.95;61.46
6349;BME280;3207;42.648;23.406;2022-09-01T01:03:32;99933.28;;;23.00;61.29
6349;BME280;3207;42.648;23.406;2022-09-01T01:06:02;99931.03;;;22.97;61.16
6349;BME280;3207;42.648;23.406;2022-09-01T01:08:37;99932.78;;;22.90;61.10
6349;BME280;3207;42.648;23.406;2022-09-01T01:11:08;99935.22;;;22.85;61.33
6349;BME280;3207;42.648;23.406;2022-09-01T01:13:46;99926.13;;;22.79;61.47
6349;BME280;3207;42.648;23.406;2022-09-01T01:16:15;99931.28;;;22.81;61.22
6349;BME280;3207;42.648;23.406;2022-09-01T01:18:42;99941.31;;;22.79;60.86
6349;BME280;3207;42.648;23.406;2022-09-01T01:21:17;99939.94;;;22.68;61.15
6349;BME280;3207;42.648;23.406;2022-09-01T01:24:07;99937.88;;;22.63;61.55
6349;BME280;3207;42.648;23.406;2022-09-01T01:26:44;99934.34;;;22.56;61.38
6349;BME280;3207;42.648;23.406;2022-09-01T01:29:11;99939.03;;;22.54;61.47
6349;BME280;3207;42.648;23.406;2022-09-01T01:31:40;99947.41;;;22.51;61.45
6349;BME280;3207;42.648;23.406;2022-09-01T01:34:07;99939.78;;;22.48;61.79
6349;BME280;3207;42.648;23.406;2022-09-01T01:36:36;99946.09;;;22.47;61.95
6349;BME280;3207;42.648;23.406;2022-09-01T01:39:11;99949.59;;;22.48;61.87
6349;BME280;3207;42.648;23.406;2022-09-01T01:41:39;99949.00;;;22.46;61.62
6349;BME280;3207;42.648;23.406;2022-09-01T01:44:12;99944.22;;;22.41;61.90
6349;BME280;3207;42.648;23.406;2022-09-01T01:46:40;99936.34;;;22.33;61.89
6349;BME280;3207;42.648;23.406;2022-09-01T01:49:08;99935.06;;;22.29;62.22
6349;BME280;3207;42.648;23.406;2022-09-01T01:51:38;99928.72;;;22.30;62.05
6349;BME280;3207;42.648;23.406;2022-09-01T01:54:05;99933.41;;;22.28;62.25
6349;BME280;3207;42.648;23.406;2022-09-01T01:56:33;99935.06;;;22.29;62.15
6349;BME280;3207;42.648;23.406;2022-09-01T01:59:04;99936.09;;;22.28;62.13
6349;BME280;3207;42.648;23.406;2022-09-01T02:01:32;99940.41;;;22.29;62.00
6349;BME280;3207;42.648;23.406;2022-09-01T02:04:00;99935.91;;;22.30;62.05
6349;BME280;3207;42.648;23.406;2022-09-01T02:06:32;99929.09;;;22.27;62.02
6349;BME280;3207;42.648;23.406;2022-09-01T02:08:59;99939.94;;;22.25;62.01
6349;BME280;3207;42.648;23.406;2022-09-01T02:11:30;99936.44;;;22.25;62.08
6349;BME280;3207;42.648;23.406;2022-09-01T02:13:58;99940.16;;;22.24;62.10
6349;BME280;3207;42.648;23.406;2022-09-01T02:16:27;99935.84;;;22.23;61.98
6349;BME280;3207;42.648;23.406;2022-09-01T02:18:55;99937.50;;;22.24;62.00
6349;BME280;3207;42.648;23.406;2022-09-01T02:21:23;99948.97;;;22.24;61.84
6349;BME280;3207;42.648;23.406;2022-09-01T02:23:53;99940.97;;;22.24;61.97
6349;BME280;3207;42.648;23.406;2022-09-01T02:26:26;99945.25;;;22.25;61.92
6349;BME280;3207;42.648;23.406;2022-09-01T02:28:56;99947.75;;;22.27;61.95
6349;BME280;3207;42.648;23.406;2022-09-01T02:31:26;99935.38;;;22.19;61.92
6349;BME280;3207;42.648;23.406;2022-09-01T02:33:53;99949.97;;;22.23;61.55
6349;BME280;3207;42.648;23.406;2022-09-01T02:36:21;99950.16;;;22.22;61.79
6349;BME280;3207;42.648;23.406;2022-09-01T02:38:50;99953.84;;;22.21;61.50
6349;BME280;3207;42.648;23.406;2022-09-01T02:41:17;99948.50;;;22.21;61.90
6349;BME280;3207;42.648;23.406;2022-09-01T02:43:48;99950.16;;;22.22;61.82
6349;BME280;3207;42.648;23.406;2022-09-01T02:46:15;99948.16;;;22.24;61.98
6349;BME280;3207;42.648;23.406;2022-09-01T02:48:46;99947.09;;;22.25;61.97
6349;BME280;3207;42.648;23.406;2022-09-01T02:51:19;99941.16;;;22.23;61.77
6349;BME280;3207;42.648;23.406;2022-09-01T02:53:48;99943.00;;;22.22;61.91
6349;BME280;3207;42.648;23.406;2022-09-01T02:56:18;99943.19;;;22.21;61.96
6349;BME280;3207;42.648;23.406;2022-09-01T02:58:47;99945.03;;;22.20;62.01
6349;BME280;3207;42.648;23.406;2022-09-01T03:01:20;99946.84;;;22.20;61.86
6349;BME280;3207;42.648;23.406;2022-09-01T03:03:50;99948.50;;;22.21;62.16
6349;BME280;3207;42.648;23.406;2022-09-01T03:06:17;99947.88;;;22.19;62.02
6349;BME280;3207;42.648;23.406;2022-09-01T03:08:45;99939.63;;;22.14;62.13
6349;BME280;3207;42.648;23.406;2022-09-01T03:11:14;99943.50;;;22.11;62.08
6349;BME280;3207;42.648;23.406;2022-09-01T03:13:41;99939.34;;;22.09;62.02
6349;BME280;3207;42.648;23.406;2022-09-01T03:16:09;99936.81;;;22.01;62.37
6349;BME280;3207;42.648;23.406;2022-09-01T03:18:36;99937.50;;;21.95;62.11
6349;BME280;3207;42.648;23.406;2022-09-01T03:21:04;99928.09;;;21.92;62.75
6349;BME280;3207;42.648;23.406;2022-09-01T03:23:31;99942.84;;;21.95;62.89
6349;BME280;3207;42.648;23.406;2022-09-01T03:26:00;99940.75;;;21.90;63.16
6349;BME280;3207;42.648;23.406;2022-09-01T03:28:28;99951.66;;;21.95;63.18
6349;BME280;3207;42.648;23.406;2022-09-01T03:30:57;99934.84;;;21.95;62.99
6349;BME280;3207;42.648;23.406;2022-09-01T03:33:25;99936.69;;;21.94;63.27
6349;BME280;3207;42.648;23.406;2022-09-01T03:35:53;99942.66;;;21.96;63.67
6349;BME280;3207;42.648;23.406;2022-09-01T03:38:21;99952.28;;;21.97;63.94
6349;BME280;3207;42.648;23.406;2022-09-01T03:40:50;99951.13;;;22.00;63.99
6349;BME280;3207;42.648;23.406;2022-09-01T03:43:18;99944.16;;;21.99;64.08
6349;BME280;3207;42.648;23.406;2022-09-01T03:45:49;99945.13;;;21.98;64.36
6349;BME280;3207;42.648;23.406;2022-09-01T03:48:18;99942.47;;;21.98;64.39
6349;BME280;3207;42.648;23.406;2022-09-01T03:50:45;99933.84;;;21.96;64.41
6349;BME280;3207;42.648;23.406;2022-09-01T03:53:14;99933.50;;;21.99;64.36
6349;BME280;3207;42.648;23.406;2022-09-01T03:55:43;99931.81;;;21.98;64.32
6349;BME280;3207;42.648;23.406;2022-09-01T03:58:12;99926.16;;;22.01;64.28
6349;BME280;3207;42.648;23.406;2022-09-01T04:00:45;99930.47;;;22.02;64.35
6349;BME280;3207;42.648;23.406;2022-09-01T04:03:16;99934.97;;;22.01;64.41
6349;BME280;3207;42.648;23.406;2022-09-01T04:05:48;99937.81;;;22.00;64.33
6349;BME280;3207;42.648;23.406;2022-09-01T04:08:17;99936.63;;;22.02;64.79
6349;BME280;3207;42.648;23.406;2022-09-01T04:10:47;99935.97;;;22.00;64.62
6349;BME280;3207;42.648;23.406;2022-09-01T04:13:17;99948.28;;;22.01;64.90
6349;BME280;3207;42.648;23.406;2022-09-01T04:15:44;99949.63;;;21.97;64.82
6349;BME280;3207;42.648;23.406;2022-09-01T04:18:12;99941.19;;;21.93;64.72
6349;BME280;3207;42.648;23.406;2022-09-01T04:20:48;99932.56;;;21.91;64.76
6349;BME280;3207;42.648;23.406;2022-09-01T04:23:17;99929.91;;;21.91;64.74
6349;BME280;3207;42.648;23.406;2022-09-01T04:25:52;99942.75;;;21.88;64.91
6349;BME280;3207;42.648;23.406;2022-09-01T04:28:22;99936.16;;;21.84;64.99
6349;BME280;3207;42.648;23.406;2022-09-01T04:30:51;99940.66;;;21.83;65.24
6349;BME280;3207;42.648;23.406;2022-09-01T04:33:21;99936.31;;;21.82;65.44
6349;BME280;3207;42.648;23.406;2022-09-01T04:35:50;99935.31;;;21.83;66.07
6349;BME280;3207;42.648;23.406;2022-09-01T04:38:20;99932.03;;;21.81;66.05
6349;BME280;3207;42.648;23.406;2022-09-01T04:40:47;99930.69;;;21.71;66.07
6349;BME280;3207;42.648;23.406;2022-09-01T04:43:15;99937.66;;;21.72;66.61
6349;BME280;3207;42.648;23.406;2022-09-01T04:45:42;99943.41;;;21.75;66.95
6349;BME280;3207;42.648;23.406;2022-09-01T04:48:11;99941.75;;;21.74;67.03
6349;BME280;3207;42.648;23.406;2022-09-01T04:50:39;99950.50;;;21.68;67.38
6349;BME280;3207;42.648;23.406;2022-09-01T04:53:07;99945.53;;;21.65;67.85
6349;BME280;3207;42.648;23.406;2022-09-01T04:55:38;99948.19;;;21.65;68.25
6349;BME280;3207;42.648;23.406;2022-09-01T04:58:08;99955.16;;;21.66;68.37
6349;BME280;3207;42.648;23.406;2022-09-01T05:00:38;99948.19;;;21.65;68.66
6349;BME280;3207;42.648;23.406;2022-09-01T05:03:06;99943.34;;;21.54;67.88
6349;BME280;3207;42.648;23.406;2022-09-01T05:05:38;99953.72;;;21.49;68.35
6349;BME280;3207;42.648;23.406;2022-09-01T05:08:09;99954.69;;;21.33;68.53
6349;BME280;3207;42.648;23.406;2022-09-01T05:10:40;99953.63;;;21.28;68.88
6349;BME280;3207;42.648;23.406;2022-09-01T05:13:09;99951.47;;;21.23;68.55
6349;BME280;3207;42.648;23.406;2022-09-01T05:15:38;99952.84;;;21.19;68.58
6349;BME280;3207;42.648;23.406;2022-09-01T05:18:12;99916.28;;;20.98;68.75
6349;BME280;3207;42.648;23.406;2022-09-01T05:20:41;99951.66;;;21.22;68.98
6349;BME280;3207;42.648;23.406;2022-09-01T05:23:11;99953.44;;;21.29;69.11
6349;BME280;3207;42.648;23.406;2022-09-01T05:25:40;99944.63;;;21.29;68.79
6349;BME280;3207;42.648;23.406;2022-09-01T05:28:09;99955.19;;;21.37;69.07
6349;BME280;3207;42.648;23.406;2022-09-01T05:30:37;99954.00;;;21.39;69.05
6349;BME280;3207;42.648;23.406;2022-09-01T05:33:05;99949.50;;;21.40;68.90
6349;BME280;3207;42.648;23.406;2022-09-01T05:35:38;99956.09;;;21.44;68.51
6349;BME280;3207;42.648;23.406;2022-09-01T05:38:10;99957.66;;;21.38;68.07
6349;BME280;3207;42.648;23.406;2022-09-01T05:40:38;99964.16;;;21.36;67.80
6349;BME280;3207;42.648;23.406;2022-09-01T05:43:06;99965.16;;;21.35;67.28
6349;BME280;3207;42.648;23.406;2022-09-01T05:45:36;99966.53;;;21.31;67.11
6349;BME280;3207;42.648;23.406;2022-09-01T05:48:03;99957.28;;;21.27;67.47
6349;BME280;3207;42.648;23.406;2022-09-01T05:50:30;99964.59;;;21.25;67.59
6349;BME280;3207;42.648;23.406;2022-09-01T05:52:57;99973.31;;;21.18;67.18
6349;BME280;3207;42.648;23.406;2022-09-01T05:55:25;99969.03;;;21.09;66.53
6349;BME280;3207;42.648;23.406;2022-09-01T05:57:52;99966.09;;;21.04;66.43
6349;BME280;3207;42.648;23.406;2022-09-01T06:00:19;99984.41;;;20.99;66.51
6349;BME280;3207;42.648;23.406;2022-09-01T06:02:47;99974.84;;;20.90;66.50
6349;BME280;3207;42.648;23.406;2022-09-01T06:05:14;99975.81;;;20.74;66.35
6349;BME280;3207;42.648;23.406;2022-09-01T06:07:41;99981.41;;;20.57;66.60
6349;BME280;3207;42.648;23.406;2022-09-01T06:10:09;99996.22;;;20.51;67.10
6349;BME280;3207;42.648;23.406;2022-09-01T06:12:38;99988.16;;;20.44;67.51
6349;BME280;3207;42.648;23.406;2022-09-01T06:15:06;99993.13;;;20.39;67.83
6349;BME280;3207;42.648;23.406;2022-09-01T06:17:40;99992.38;;;20.23;68.71
6349;BME280;3207;42.648;23.406;2022-09-01T06:20:08;100000.75;;;20.03;69.17
6349;BME280;3207;42.648;23.406;2022-09-01T06:22:36;100007.13;;;19.86;70.02
6349;BME280;3207;42.648;23.406;2022-09-01T06:25:04;100001.66;;;19.88;70.34
6349;BME280;3207;42.648;23.406;2022-09-01T06:27:33;100002.69;;;19.79;70.81
6349;BME280;3207;42.648;23.406;2022-09-01T06:30:11;100003.16;;;19.82;71.00
6349;BME280;3207;42.648;23.406;2022-09-01T06:32:42;100005.47;;;19.85;71.43
6349;BME280;3207;42.648;23.406;2022-09-01T06:35:09;100014.25;;;19.86;71.58
6349;BME280;3207;42.648;23.406;2022-09-01T06:37:38;100008.34;;;19.67;72.61
6349;BME280;3207;42.648;23.406;2022-09-01T06:40:09;100008.03;;;19.70;72.58
6349;BME280;3207;42.648;23.406;2022-09-01T06:42:41;100018.63;;;19.70;73.00
6349;BME280;3207;42.648;23.406;2022-09-01T06:45:11;100018.78;;;19.69;73.48
6349;BME280;3207;42.648;23.406;2022-09-01T06:47:39;100019.59;;;19.78;73.42
6349;BME280;3207;42.648;23.406;2022-09-01T06:50:10;100024.22;;;19.84;73.52
6349;BME280;3207;42.648;23.406;2022-09-01T06:52:40;100030.84;;;19.88;73.65
6349;BME280;3207;42.648;23.406;2022-09-01T06:55:08;100040.47;;;19.89;73.66
6349;BME280;3207;42.648;23.406;2022-09-01T06:57:36;100040.63;;;19.87;73.61
6349;BME280;3207;42.648;23.406;2022-09-01T07:00:05;100038.13;;;19.86;73.67
6349;BME280;3207;42.648;23.406;2022-09-01T07:02:44;100027.22;;;19.72;73.16
6349;BME280;3207;42.648;23.406;2022-09-01T07:05:13;100031.06;;;19.62;73.79
6349;BME280;3207;42.648;23.406;2022-09-01T07:07:46;100032.88;;;19.69;73.82
6349;BME280;3207;42.648;23.406;2022-09-01T07:10:16;100034.88;;;19.67;73.78
6349;BME280;3207;42.648;23.406;2022-09-01T07:12:47;100045.81;;;19.64;73.93
6349;BME280;3207;42.648;23.406;2022-09-01T07:15:14;100046.13;;;19.61;74.47
6349;BME280;3207;42.648;23.406;2022-09-01T07:17:44;100042.16;;;19.65;74.22
6349;BME280;3207;42.648;23.406;2022-09-01T07:20:13;100046.47;;;19.66;74.61
6349;BME280;3207;42.648;23.406;2022-09-01T07:22:40;100045.16;;;19.70;74.63
6349;BME280;3207;42.648;23.406;2022-09-01T07:25:08;100050.75;;;19.84;74.07
6349;BME280;3207;42.648;23.406;2022-09-01T07:27:36;100040.09;;;19.92;73.67
6349;BME280;3207;42.648;23.406;2022-09-01T07:30:05;100043.28;;;19.87;73.68
6349;BME280;3207;42.648;23.406;2022-09-01T07:32:34;100049.59;;;19.86;73.72
6349;BME280;3207;42.648;23.406;2022-09-01T07:35:02;100040.50;;;19.81;74.28
6349;BME280;3207;42.648;23.406;2022-09-01T07:37:33;100030.22;;;19.78;74.06
6349;BME280;3207;42.648;23.406;2022-09-01T07:40:04;100037.63;;;19.82;73.87
6349;BME280;3207;42.648;23.406;2022-09-01T07:42:31;100030.50;;;19.83;73.74
6349;BME280;3207;42.648;23.406;2022-09-01T07:44:58;100032.00;;;19.85;73.78
6349;BME280;3207;42.648;23.406;2022-09-01T07:47:27;100029.66;;;19.98;73.65
6349;BME280;3207;42.648;23.406;2022-09-01T07:49:54;99985.06;;;19.86;73.17
6349;BME280;3207;42.648;23.406;2022-09-01T07:52:22;100009.56;;;19.96;72.50
6349;BME280;3207;42.648;23.406;2022-09-01T07:54:49;100030.06;;;20.18;71.77
6349;BME280;3207;42.648;23.406;2022-09-01T07:57:17;100027.41;;;20.18;72.21
6349;BME280;3207;42.648;23.406;2022-09-01T07:59:44;100037.03;;;20.19;72.19
6349;BME280;3207;42.648;23.406;2022-09-01T08:02:10;100040.28;;;20.29;71.78
6349;BME280;3207;42.648;23.406;2022-09-01T08:04:37;100033.16;;;20.38;71.22
6349;BME280;3207;42.648;23.406;2022-09-01T08:07:04;100029.81;;;20.36;70.94
6349;BME280;3207;42.648;23.406;2022-09-01T08:09:35;100024.03;;;20.32;70.95
6349;BME280;3207;42.648;23.406;2022-09-01T08:12:03;100045.25;;;20.40;70.86
6349;BME280;3207;42.648;23.406;2022-09-01T08:14:30;100043.91;;;20.44;70.70
6349;BME280;3207;42.648;23.406;2022-09-01T08:16:57;100042.72;;;20.47;70.74
6349;BME280;3207;42.648;23.406;2022-09-01T08:19:24;100040.56;;;20.51;70.52
6349;BME280;3207;42.648;23.406;2022-09-01T08:21:51;100049.13;;;20.61;70.16
6349;BME280;3207;42.648;23.406;2022-09-01T08:24:17;100043.25;;;20.73;70.11
6349;BME280;3207;42.648;23.406;2022-09-01T08:26:46;100044.06;;;20.74;69.97
6349;BME280;3207;42.648;23.406;2022-09-01T08:29:12;100047.16;;;20.86;70.10
6349;BME280;3207;42.648;23.406;2022-09-01T08:31:39;100047.91;;;20.94;69.51
6349;BME280;3207;42.648;23.406;2022-09-01T08:34:06;100046.53;;;20.98;69.07
6349;BME280;3207;42.648;23.406;2022-09-01T08:36:35;100046.34;;;21.00;68.66
6349;BME280;3207;42.648;23.406;2022-09-01T08:39:04;100049.84;;;21.00;68.30
6349;BME280;3207;42.648;23.406;2022-09-01T08:41:41;100038.22;;;21.01;67.72
6349;BME280;3207;42.648;23.406;2022-09-01T08:44:18;100046.53;;;20.98;68.01
6349;BME280;3207;42.648;23.406;2022-09-01T08:46:47;100036.94;;;20.97;67.89
6349;BME280;3207;42.648;23.406;2022-09-01T08:49:20;100033.03;;;21.08;67.79
6349;BME280;3207;42.648;23.406;2022-09-01T08:51:50;100032.78;;;21.17;67.69
6349;BME280;3207;42.648;23.406;2022-09-01T08:54:22;100040.97;;;21.31;67.14
6349;BME280;3207;42.648;23.406;2022-09-01T08:56:52;100028.47;;;21.54;66.74
6349;BME280;3207;42.648;23.406;2022-09-01T08:59:21;100029.75;;;21.73;65.56
6349;BME280;3207;42.648;23.406;2022-09-01T09:01:52;100034.44;;;21.85;64.55
6349;BME280;3207;42.648;23.406;2022-09-01T09:04:32;100030.16;;;21.99;64.34
6349;BME280;3207;42.648;23.406;2022-09-01T09:07:09;100038.53;;;22.11;63.85
6349;BME280;3207;42.648;23.406;2022-09-01T09:09:44;100035.88;;;22.11;63.59
6349;BME280;3207;42.648;23.406;2022-09-01T09:12:30;100037.69;;;22.10;64.13
6349;BME280;3207;42.648;23.406;2022-09-01T09:15:10;100048.25;;;22.04;63.91
6349;BME280;3207;42.648;23.406;2022-09-01T09:17:45;100050.06;;;21.88;64.23
6349;BME280;3207;42.648;23.406;2022-09-01T09:20:14;100052.31;;;21.62;64.90
6349;BME280;3207;42.648;23.406;2022-09-01T09:22:44;100060.66;;;21.44;65.83
6349;BME280;3207;42.648;23.406;2022-09-01T09:25:15;100062.22;;;21.39;66.18
6349;BME280;3207;42.648;23.406;2022-09-01T09:27:44;100052.94;;;21.35;66.19
6349;BME280;3207;42.648;23.406;2022-09-01T09:30:14;100059.34;;;21.40;66.49
6349;BME280;3207;42.648;23.406;2022-09-01T09:32:48;100065.56;;;21.33;66.94
6349;BME280;3207;42.648;23.406;2022-09-01T09:35:26;100060.59;;;21.30;67.23
6349;BME280;3207;42.648;23.406;2022-09-01T09:37:54;100060.84;;;21.20;68.09
6349;BME280;3207;42.648;23.406;2022-09-01T09:40:22;100055.00;;;21.25;68.36
6349;BME280;3207;42.648;23.406;2022-09-01T09:43:01;100057.31;;;21.28;68.30
6349;BME280;3207;42.648;23.406;2022-09-01T09:45:31;100053.34;;;21.24;68.49
6349;BME280;3207;42.648;23.406;2022-09-01T09:47:59;100064.66;;;21.26;68.86
6349;BME280;3207;42.648;23.406;2022-09-01T09:50:31;100069.03;;;21.18;69.00
6349;BME280;3207;42.648;23.406;2022-09-01T09:53:14;100073.31;;;21.19;69.27
6349;BME280;3207;42.648;23.406;2022-09-01T09:55:56;100071.53;;;21.12;69.22
6349;BME280;3207;42.648;23.406;2022-09-01T09:58:25;100079.97;;;21.15;69.27
6349;BME280;3207;42.648;23.406;2022-09-01T10:01:05;100078.31;;;21.14;69.63
6349;BME280;3207;42.648;23.406;2022-09-01T10:03:38;100068.03;;;21.11;69.92
6349;BME280;3207;42.648;23.406;2022-09-01T10:06:09;100089.63;;;21.16;69.96
6349;BME280;3207;42.648;23.406;2022-09-01T10:08:39;100087.81;;;21.09;70.19
6349;BME280;3207;42.648;23.406;2022-09-01T10:11:10;100083.88;;;21.05;70.92
6349;BME280;3207;42.648;23.406;2022-09-01T10:13:38;100080.69;;;21.09;71.36
6349;BME280;3207;42.648;23.406;2022-09-01T10:16:17;100087.09;;;21.23;71.39
6349;BME280;3207;42.648;23.406;2022-09-01T10:18:47;100080.94;;;21.45;70.91
6349;BME280;3207;42.648;23.406;2022-09-01T10:21:20;100071.41;;;21.66;69.86
6349;BME280;3207;42.648;23.406;2022-09-01T10:23:48;100073.00;;;21.89;69.38
6349;BME280;3207;42.648;23.406;2022-09-01T10:26:18;100071.66;;;22.08;69.03
6349;BME280;3207;42.648;23.406;2022-09-01T10:28:52;100077.06;;;22.15;68.02
6349;BME280;3207;42.648;23.406;2022-09-01T10:31:21;100068.72;;;22.33;68.29
6349;BME280;3207;42.648;23.406;2022-09-01T10:33:49;100063.88;;;22.57;67.33
6349;BME280;3207;42.648;23.406;2022-09-01T10:36:17;100064.06;;;22.92;66.22
6349;BME280;3207;42.648;23.406;2022-09-01T10:38:45;100064.72;;;23.15;65.34
6349;BME280;3207;42.648;23.406;2022-09-01T10:41:42;100063.69;;;23.16;64.46
6349;BME280;3207;42.648;23.406;2022-09-01T10:44:17;100066.09;;;22.90;65.25
6349;BME280;3207;42.648;23.406;2022-09-01T10:46:47;100066.22;;;22.82;65.91
6349;BME280;3207;42.648;23.406;2022-09-01T10:52:51;100067.72;;;22.34;68.58
6349;BME280;3207;42.648;23.406;2022-09-01T10:55:21;100051.72;;;22.19;69.02
6349;BME280;3207;42.648;23.406;2022-09-01T10:57:54;100060.44;;;22.27;68.92
6349;BME280;3207;42.648;23.406;2022-09-01T11:00:44;100046.41;;;22.19;69.37
6349;BME280;3207;42.648;23.406;2022-09-01T11:06:55;100045.19;;;22.36;69.58
6349;BME280;3207;42.648;23.406;2022-09-01T11:09:26;100043.75;;;22.04;70.75
6349;BME280;3207;42.648;23.406;2022-09-01T11:12:11;100038.22;;;21.91;71.14
6349;BME280;3207;42.648;23.406;2022-09-01T11:14:48;100051.06;;;21.87;71.39
6349;BME280;3207;42.648;23.406;2022-09-01T11:17:19;100047.84;;;21.63;71.93
6349;BME280;3207;42.648;23.406;2022-09-01T11:19:53;100037.38;;;21.46;72.60
6349;BME280;3207;42.648;23.406;2022-09-01T11:22:36;100042.84;;;21.45;72.92
6349;BME280;3207;42.648;23.406;2022-09-01T11:25:36;100037.19;;;21.48;72.75
6349;BME280;3207;42.648;23.406;2022-09-01T11:31:30;100023.69;;;21.35;71.96
6349;BME280;3207;42.648;23.406;2022-09-01T11:34:13;100041.38;;;21.42;72.60
6349;BME280;3207;42.648;23.406;2022-09-01T11:36:55;100043.03;;;21.43;71.96
6349;BME280;3207;42.648;23.406;2022-09-01T11:39:40;100045.69;;;21.43;71.49
6349;BME280;3207;42.648;23.406;2022-09-01T11:42:16;100036.09;;;21.19;72.17
6349;BME280;3207;42.648;23.406;2022-09-01T11:44:48;100021.84;;;21.12;71.94
6349;BME280;3207;42.648;23.406;2022-09-01T11:47:19;100038.06;;;21.40;71.78
6349;BME280;3207;42.648;23.406;2022-09-01T11:49:51;100033.13;;;21.52;71.09
6349;BME280;3207;42.648;23.406;2022-09-01T11:52:21;100040.22;;;21.60;70.85
6349;BME280;3207;42.648;23.406;2022-09-01T11:54:50;100042.84;;;21.45;70.66
6349;BME280;3207;42.648;23.406;2022-09-01T11:57:22;100035.78;;;21.52;70.94
6349;BME280;3207;42.648;23.406;2022-09-01T11:59:50;100025.53;;;21.64;70.60
6349;BME280;3207;42.648;23.406;2022-09-01T12:02:20;100026.22;;;21.80;70.28
6349;BME280;3207;42.648;23.406;2022-09-01T12:04:48;100029.41;;;21.76;69.72
6349;BME280;3207;42.648;23.406;2022-09-01T12:07:26;100034.09;;;21.88;69.23
6349;BME280;3207;42.648;23.406;2022-09-01T12:09:55;100040.44;;;21.87;68.82
6349;BME280;3207;42.648;23.406;2022-09-01T12:12:28;100036.31;;;22.00;67.88
6349;BME280;3207;42.648;23.406;2022-09-01T12:14:56;100036.97;;;22.02;67.14
6349;BME280;3207;42.648;23.406;2022-09-01T12:17:23;100044.97;;;22.02;67.00
6349;BME280;3207;42.648;23.406;2022-09-01T12:19:50;100039.50;;;21.95;65.30
6349;BME280;3207;42.648;23.406;2022-09-01T12:22:20;100045.66;;;21.96;64.65
6349;BME280;3207;42.648;23.406;2022-09-01T12:24:48;100032.16;;;21.97;64.99
6349;BME280;3207;42.648;23.406;2022-09-01T12:27:17;100043.72;;;21.89;65.04
6349;BME280;3207;42.648;23.406;2022-09-01T12:29:45;100043.09;;;21.87;64.86
6349;BME280;3207;42.648;23.406;2022-09-01T12:32:13;100041.44;;;21.86;64.50
6349;BME280;3207;42.648;23.406;2022-09-01T12:34:42;100051.16;;;21.79;64.46
6349;BME280;3207;42.648;23.406;2022-09-01T12:37:19;100056.31;;;21.81;64.37
6349;BME280;3207;42.648;23.406;2022-09-01T12:39:48;100046.81;;;21.64;65.31
6349;BME280;3207;42.648;23.406;2022-09-01T12:42:25;100048.75;;;21.55;65.28
6349;BME280;3207;42.648;23.406;2022-09-01T12:44:54;100050.09;;;21.51;65.38
6349;BME280;3207;42.648;23.406;2022-09-01T12:47:45;100042.59;;;21.54;65.51
6349;BME280;3207;42.648;23.406;2022-09-01T12:50:40;100040.75;;;21.55;65.53
6349;BME280;3207;42.648;23.406;2022-09-01T12:53:19;100047.44;;;21.51;65.59
6349;BME280;3207;42.648;23.406;2022-09-01T12:55:58;100050.38;;;21.41;66.32
6349;BME280;3207;42.648;23.406;2022-09-01T12:58:28;100046.53;;;21.44;66.07
6349;BME280;3207;42.648;23.406;2022-09-01T13:00:59;100054.59;;;21.36;66.85
6349;BME280;3207;42.648;23.406;2022-09-01T13:03:27;100060.44;;;21.31;66.80
6349;BME280;3207;42.648;23.406;2022-09-01T13:05:57;100059.16;;;21.42;67.03
6349;BME280;3207;42.648;23.406;2022-09-01T13:08:26;100056.81;;;21.47;67.06
6349;BME280;3207;42.648;23.406;2022-09-01T13:10:55;100052.66;;;21.44;67.42
6349;BME280;3207;42.648;23.406;2022-09-01T13:13:24;100051.50;;;21.47;67.20
6349;BME280;3207;42.648;23.406;2022-09-01T13:15:55;100053.97;;;21.48;67.27
6349;BME280;3207;42.648;23.406;2022-09-01T13:18:24;100054.84;;;21.41;67.53
6349;BME280;3207;42.648;23.406;2022-09-01T13:20:52;100060.59;;;21.30;68.11
6349;BME280;3207;42.648;23.406;2022-09-01T13:23:22;100061.91;;;21.34;67.74
6349;BME280;3207;42.648;23.406;2022-09-01T13:25:50;100057.03;;;21.23;68.07
6349;BME280;3207;42.648;23.406;2022-09-01T13:28:19;100063.09;;;21.31;68.37
6349;BME280;3207;42.648;23.406;2022-09-01T13:30:53;100063.56;;;21.35;68.48
6349;BME280;3207;42.648;23.406;2022-09-01T13:33:21;100063.88;;;21.40;68.13